Terminal Aerodrome Forecast
Issued by NWS Denver/Boulder, CO

Home | Current Version | Previous Version | Text Only | Print | Product List | Glossary On
Versions: 1 2 3 4 5 6 7 8 9 10 11 12 13 14 15 16 17 18 19 20 21 22 23 24 25 26 27 28 29 30 31 32 33 34 35 36 37 38 39 40 41 42 43 44
000
FTUS45 KBOU 062336
TAFDEN
TAF
KDEN 062336Z 0700/0806 16016KT P6SM SCT045 OVC060
     FM070100 14013KT P6SM VCSH SCT035 OVC050
     FM070300 10010KT 3SM -SN BKN020 OVC030
     FM070600 08009KT 1SM -SN BR BKN010 OVC020
      TEMPO 0708/0712 1/2SM SN FZFG OVC008
     FM071500 03012KT 3SM -SN BKN012 OVC025
     FM071800 35010KT P6SM VCSH SCT022 BKN035
     FM072200 04008KT P6SM SCT050 BKN080=

USA.gov is the U.S. government's official web portal to all federal, state and local government web resources and services.